createdAt,value
2017-08-25T00:01:35.143Z,20.12
2017-08-25T00:04:02.464Z,20.10
2017-08-25T00:06:29.070Z,20.22
2017-08-25T00:08:55.476Z,20.12
2017-08-25T00:11:21.877Z,20.02
2017-08-25T00:13:48.226Z,19.84
2017-08-25T00:16:14.706Z,19.72
2017-08-25T00:18:41.082Z,19.81
2017-08-25T00:21:07.569Z,19.77
2017-08-25T00:23:33.983Z,19.65
2017-08-25T00:26:04.107Z,19.59
2017-08-25T00:28:30.743Z,19.69
2017-08-25T00:30:57.243Z,19.65
2017-08-25T00:33:23.649Z,19.77
2017-08-25T00:35:50.054Z,19.80
2017-08-25T00:38:16.557Z,19.72
2017-08-25T00:40:43.060Z,19.82
2017-08-25T00:43:09.471Z,19.58
2017-08-25T00:45:35.934Z,19.47
2017-08-25T00:48:02.332Z,19.59
2017-08-25T00:50:28.843Z,19.60
2017-08-25T00:52:55.366Z,19.59
2017-08-25T00:55:21.792Z,19.54
2017-08-25T00:57:48.227Z,19.64
2017-08-25T01:00:14.629Z,19.62
2017-08-25T01:02:41.088Z,19.68
2017-08-25T01:05:07.526Z,19.69
2017-08-25T01:07:33.981Z,19.48
2017-08-25T01:10:00.497Z,19.06
2017-08-25T01:12:26.943Z,19.13
2017-08-25T01:14:53.427Z,19.35
2017-08-25T01:17:19.866Z,19.26
2017-08-25T01:19:46.355Z,19.36
2017-08-25T01:22:12.901Z,19.33
2017-08-25T01:24:39.414Z,19.12
2017-08-25T01:27:05.905Z,19.27
2017-08-25T01:29:32.454Z,19.40
2017-08-25T01:31:59.021Z,19.53
2017-08-25T01:34:25.540Z,19.53
2017-08-25T01:36:52.009Z,19.47
2017-08-25T01:39:18.502Z,19.45
2017-08-25T01:41:45.009Z,19.49
2017-08-25T01:44:11.564Z,19.52
2017-08-25T01:46:38.105Z,19.56
2017-08-25T01:49:04.544Z,19.56
2017-08-25T01:51:31.079Z,19.48
2017-08-25T01:53:57.521Z,19.35
2017-08-25T01:56:24.029Z,19.13
2017-08-25T01:58:50.495Z,19.21
2017-08-25T02:01:16.984Z,19.42
2017-08-25T02:03:43.412Z,19.56
2017-08-25T02:06:09.938Z,19.32
2017-08-25T02:08:36.428Z,19.11
2017-08-25T02:11:02.892Z,19.03
2017-08-25T02:13:29.372Z,19.22
2017-08-25T02:15:55.906Z,19.31
2017-08-25T02:18:22.323Z,19.03
2017-08-25T02:20:48.800Z,19.07
2017-08-25T02:23:15.253Z,19.26
2017-08-25T02:25:41.670Z,19.16
2017-08-25T02:28:08.215Z,19.21
2017-08-25T02:30:35.104Z,19.32
2017-08-25T02:33:01.615Z,19.29
2017-08-25T02:35:28.326Z,19.16
2017-08-25T02:37:54.784Z,19.22
2017-08-25T02:40:21.207Z,18.94
2017-08-25T02:42:47.644Z,18.97
2017-08-25T02:45:14.056Z,19.15
2017-08-25T02:47:40.494Z,19.23
2017-08-25T02:50:06.946Z,19.15
2017-08-25T02:52:33.354Z,18.88
2017-08-25T02:54:59.759Z,18.86
2017-08-25T02:57:26.231Z,18.94
2017-08-25T02:59:52.646Z,18.98
2017-08-25T03:02:19.053Z,19.06
2017-08-25T03:04:45.533Z,18.95
2017-08-25T03:07:11.959Z,18.48
2017-08-25T03:09:38.419Z,18.47
2017-08-25T03:12:04.815Z,18.55
2017-08-25T03:14:31.187Z,18.64
2017-08-25T03:16:57.563Z,18.69
2017-08-25T03:19:24.103Z,18.48
2017-08-25T03:21:50.535Z,18.60
2017-08-25T03:24:16.956Z,18.71
2017-08-25T03:26:43.398Z,18.82
2017-08-25T03:29:09.824Z,18.73
2017-08-25T03:31:36.230Z,18.39
2017-08-25T03:34:03.569Z,18.30
2017-08-25T03:36:29.978Z,18.47
2017-08-25T03:38:56.457Z,18.66
2017-08-25T03:41:22.898Z,18.55
2017-08-25T03:43:49.305Z,18.36
2017-08-25T03:46:15.758Z,18.31
2017-08-25T03:48:42.396Z,18.07
2017-08-25T03:51:08.842Z,18.16
2017-08-25T03:53:35.253Z,18.36
2017-08-25T03:56:01.651Z,18.48
2017-08-25T03:58:28.077Z,18.54
2017-08-25T04:00:54.479Z,18.56
2017-08-25T04:03:20.861Z,18.45
2017-08-25T04:05:47.330Z,18.53
2017-08-25T04:08:13.725Z,18.25
2017-08-25T04:10:40.137Z,18.33
2017-08-25T04:13:06.683Z,17.82
2017-08-25T04:15:33.077Z,17.50
2017-08-25T04:17:59.495Z,17.92
2017-08-25T04:20:25.916Z,18.19
2017-08-25T04:22:52.582Z,17.84
2017-08-25T04:25:19.019Z,17.63
2017-08-25T04:27:45.492Z,17.75
2017-08-25T04:30:11.914Z,17.57
2017-08-25T04:32:38.387Z,17.82
2017-08-25T04:35:05.706Z,17.85
2017-08-25T04:37:32.264Z,17.73
2017-08-25T04:39:58.761Z,17.70
2017-08-25T04:42:25.287Z,17.88
2017-08-25T04:44:51.735Z,17.95
2017-08-25T04:47:18.195Z,17.96
2017-08-25T04:49:44.629Z,18.06
2017-08-25T04:52:11.079Z,17.52
2017-08-25T04:54:37.526Z,17.47
2017-08-25T04:57:03.942Z,17.30
2017-08-25T04:59:30.413Z,17.29
2017-08-25T05:01:56.863Z,17.28
2017-08-25T05:04:23.335Z,17.19
2017-08-25T05:06:49.797Z,17.17
2017-08-25T05:09:16.187Z,17.37
2017-08-25T05:11:42.638Z,17.71
2017-08-25T05:14:09.082Z,17.88
2017-08-25T05:16:35.525Z,17.82
2017-08-25T05:19:02.028Z,17.84
2017-08-25T05:21:28.456Z,17.94
2017-08-25T05:23:54.849Z,17.97
2017-08-25T05:26:21.246Z,17.95
2017-08-25T05:28:47.654Z,17.99
2017-08-25T05:31:14.022Z,18.07
2017-08-25T05:33:40.680Z,18.04
2017-08-25T05:36:07.105Z,17.97
2017-08-25T05:38:33.599Z,18.00
2017-08-25T05:40:59.989Z,18.11
2017-08-25T05:43:26.427Z,18.10
2017-08-25T05:45:52.878Z,17.80
2017-08-25T05:48:19.313Z,17.61
2017-08-25T05:50:45.984Z,17.76
2017-08-25T05:53:12.429Z,17.91
2017-08-25T05:55:38.910Z,18.04
2017-08-25T05:58:05.335Z,18.10
2017-08-25T06:00:31.776Z,18.16
2017-08-25T06:02:58.223Z,18.16
2017-08-25T06:05:24.714Z,18.19
2017-08-25T06:07:51.165Z,18.29
2017-08-25T06:10:17.646Z,18.18
2017-08-25T06:12:44.075Z,18.16
2017-08-25T06:15:10.537Z,18.02
2017-08-25T06:17:36.923Z,17.97
2017-08-25T06:20:03.360Z,18.16
2017-08-25T06:22:29.801Z,18.31
2017-08-25T06:24:56.235Z,18.29
2017-08-25T06:27:22.624Z,18.36
2017-08-25T06:29:49.041Z,18.41
2017-08-25T06:32:15.443Z,18.38
2017-08-25T06:34:41.919Z,18.25
2017-08-25T06:37:08.380Z,18.30
2017-08-25T06:39:34.818Z,18.48
2017-08-25T06:42:02.773Z,18.46
2017-08-25T06:44:29.238Z,18.47
2017-08-25T06:46:55.872Z,18.53
2017-08-25T06:49:22.278Z,18.54
2017-08-25T06:51:48.707Z,18.57
2017-08-25T06:54:15.144Z,18.65
2017-08-25T06:56:41.604Z,18.37
2017-08-25T06:59:07.974Z,18.45
2017-08-25T07:01:34.383Z,18.67
2017-08-25T07:04:01.234Z,18.54
2017-08-25T07:06:27.615Z,18.28
2017-08-25T07:08:54.027Z,18.35
2017-08-25T07:11:20.390Z,18.43
2017-08-25T07:13:46.807Z,18.62
2017-08-25T07:16:13.248Z,18.85
2017-08-25T07:18:39.707Z,18.76
2017-08-25T07:21:06.121Z,18.89
2017-08-25T07:23:32.507Z,18.96
2017-08-25T07:25:58.977Z,18.91
2017-08-25T07:28:25.476Z,18.96
2017-08-25T07:30:51.875Z,19.23
2017-08-25T07:33:18.298Z,19.33
2017-08-25T07:35:44.721Z,19.40
2017-08-25T07:38:11.155Z,19.62
2017-08-25T07:40:37.545Z,19.35
2017-08-25T07:43:03.941Z,19.70
2017-08-25T07:45:30.344Z,19.83
2017-08-25T07:47:56.690Z,19.70
2017-08-25T07:50:23.060Z,19.63
2017-08-25T07:52:49.474Z,19.67
2017-08-25T07:55:15.881Z,19.52
2017-08-25T07:57:42.883Z,19.81
2017-08-25T08:00:09.292Z,20.13
2017-08-25T08:02:35.723Z,19.93
2017-08-25T08:05:02.223Z,20.30
2017-08-25T08:07:28.633Z,20.32
2017-08-25T08:09:55.027Z,20.53
2017-08-25T08:12:21.425Z,20.60
2017-08-25T08:14:47.842Z,20.70
2017-08-25T08:17:14.221Z,20.79
2017-08-25T08:19:40.642Z,20.78
2017-08-25T08:22:07.041Z,20.83
2017-08-25T08:24:33.421Z,20.59
2017-08-25T08:26:59.835Z,20.82
2017-08-25T08:29:26.225Z,21.12
2017-08-25T08:31:52.612Z,21.31
2017-08-25T08:34:19.010Z,21.23
2017-08-25T08:36:45.411Z,21.43
2017-08-25T08:39:11.807Z,21.48
2017-08-25T08:41:38.212Z,21.46
2017-08-25T08:44:04.613Z,21.54
2017-08-25T08:46:31.037Z,21.51
2017-08-25T08:48:57.485Z,21.72
2017-08-25T08:51:23.913Z,21.67
2017-08-25T08:53:50.305Z,21.65
2017-08-25T08:56:16.733Z,21.65
2017-08-25T08:58:43.125Z,21.83
2017-08-25T09:01:09.529Z,22.01
2017-08-25T09:03:35.939Z,22.19
2017-08-25T09:06:08.337Z,22.08
2017-08-25T09:08:34.782Z,22.54
2017-08-25T09:11:01.150Z,22.50
2017-08-25T09:13:27.561Z,22.46
2017-08-25T09:15:53.988Z,22.42
2017-08-25T09:18:20.678Z,22.76
2017-08-25T09:20:47.064Z,22.64
2017-08-25T09:23:13.457Z,22.62
2017-08-25T09:25:39.883Z,22.92
2017-08-25T09:28:06.253Z,22.76
2017-08-25T09:30:32.722Z,22.75
2017-08-25T09:32:59.121Z,22.63
2017-08-25T09:35:25.534Z,23.15
2017-08-25T09:37:51.955Z,23.45
2017-08-25T09:40:18.385Z,23.50
2017-08-25T09:42:44.787Z,23.40
2017-08-25T09:45:11.248Z,23.58
2017-08-25T09:47:37.640Z,23.86
2017-08-25T09:50:04.048Z,24.11
2017-08-25T09:52:30.459Z,24.08
2017-08-25T09:54:56.915Z,24.03
2017-08-25T09:57:23.381Z,24.31
2017-08-25T09:59:49.825Z,24.53
2017-08-25T10:02:16.264Z,24.64
2017-08-25T10:04:42.703Z,24.41
2017-08-25T10:07:09.159Z,24.16
2017-08-25T10:09:35.609Z,24.22
2017-08-25T10:12:02.021Z,24.13
2017-08-25T10:14:28.432Z,24.56
2017-08-25T10:16:54.841Z,24.67
2017-08-25T10:19:21.249Z,24.40
2017-08-25T10:21:47.647Z,24.77
2017-08-25T10:24:14.047Z,25.26
2017-08-25T10:26:40.497Z,25.15
2017-08-25T10:29:06.935Z,24.93
2017-08-25T10:31:34.367Z,24.68
2017-08-25T10:34:12.785Z,24.55
2017-08-25T10:36:51.171Z,24.90
2017-08-25T10:39:29.571Z,24.70
2017-08-25T10:42:07.951Z,24.67
2017-08-25T10:44:46.264Z,24.78
2017-08-25T10:47:12.663Z,24.78
2017-08-25T10:49:39.083Z,24.64
2017-08-25T10:52:05.454Z,24.85
2017-08-25T10:54:31.818Z,24.77
2017-08-25T10:56:58.181Z,25.12
2017-08-25T10:59:24.605Z,25.17
2017-08-25T11:01:51.021Z,25.25
2017-08-25T11:04:17.398Z,24.95
2017-08-25T11:06:43.799Z,25.11
2017-08-25T11:09:10.197Z,25.43
2017-08-25T11:11:37.521Z,25.28
2017-08-25T11:14:04.133Z,25.30
2017-08-25T11:16:30.536Z,25.78
2017-08-25T11:18:57.972Z,25.70
2017-08-25T11:21:24.465Z,25.75
2017-08-25T11:23:50.815Z,25.72
2017-08-25T11:26:19.001Z,25.66
2017-08-25T11:28:45.434Z,25.65
2017-08-25T11:31:12.599Z,25.65
2017-08-25T11:33:39.006Z,25.52
2017-08-25T11:36:05.451Z,25.57
2017-08-25T11:38:31.841Z,25.58
2017-08-25T11:40:58.271Z,25.99
2017-08-25T11:46:06.616Z,26.75
2017-08-25T11:48:33.069Z,26.55
2017-08-25T11:50:59.527Z,26.85
2017-08-25T11:53:25.949Z,26.66
2017-08-25T11:55:52.457Z,26.52
2017-08-25T11:58:18.965Z,26.36
2017-08-25T12:00:45.405Z,26.41
2017-08-25T12:03:11.842Z,26.02
2017-08-25T12:05:38.307Z,25.39
2017-08-25T12:08:05.185Z,25.73
2017-08-25T12:10:36.162Z,26.19
2017-08-25T12:13:02.617Z,26.36
2017-08-25T12:15:29.053Z,26.17
2017-08-25T12:17:55.474Z,26.13
2017-08-25T12:20:22.397Z,26.08
2017-08-25T12:22:48.817Z,26.41
2017-08-25T12:25:15.324Z,26.68
2017-08-25T12:27:41.786Z,26.79
2017-08-25T12:30:08.202Z,26.89
2017-08-25T12:32:34.621Z,26.52
2017-08-25T12:35:00.991Z,26.29
2017-08-25T12:37:27.426Z,26.46
2017-08-25T12:39:53.842Z,26.60
2017-08-25T12:42:20.220Z,26.82
2017-08-25T12:44:46.873Z,26.96
2017-08-25T12:47:13.235Z,26.73
2017-08-25T12:49:39.641Z,26.78
2017-08-25T12:52:06.021Z,26.64
2017-08-25T12:54:32.433Z,26.40
2017-08-25T12:56:58.841Z,26.31
2017-08-25T12:59:25.242Z,26.33
2017-08-25T13:01:51.668Z,26.29
2017-08-25T13:04:18.115Z,26.18
2017-08-25T13:06:44.514Z,26.44
2017-08-25T13:09:10.902Z,26.73
2017-08-25T13:11:37.289Z,26.70
2017-08-25T13:14:03.684Z,26.64
2017-08-25T13:16:30.076Z,26.71
2017-08-25T13:18:56.452Z,26.54
2017-08-25T13:21:22.851Z,27.07
2017-08-25T13:23:49.241Z,26.70
2017-08-25T13:26:15.637Z,26.64
2017-08-25T13:28:42.043Z,26.71
2017-08-25T13:31:08.464Z,26.44
2017-08-25T13:33:34.863Z,26.74
2017-08-25T13:36:01.275Z,26.26
2017-08-25T13:38:27.684Z,26.88
2017-08-25T13:40:54.094Z,26.93
2017-08-25T13:43:20.540Z,26.86
2017-08-25T13:45:46.933Z,26.61
2017-08-25T13:48:13.350Z,26.41
2017-08-25T13:50:39.783Z,26.65
2017-08-25T13:53:06.214Z,26.26
2017-08-25T13:55:32.625Z,26.23
2017-08-25T13:57:59.251Z,26.25
2017-08-25T14:00:25.687Z,26.19
2017-08-25T14:02:52.167Z,26.11
2017-08-25T14:05:18.800Z,26.27
2017-08-25T14:07:45.278Z,26.32
2017-08-25T14:10:12.400Z,26.39
2017-08-25T14:12:38.768Z,26.18
2017-08-25T14:15:05.156Z,26.01
2017-08-25T14:17:31.573Z,25.95
2017-08-25T14:19:58.251Z,25.83
2017-08-25T14:22:24.620Z,25.78
2017-08-25T14:24:50.994Z,25.75
2017-08-25T14:27:17.377Z,25.74
2017-08-25T14:29:44.025Z,25.75
2017-08-25T14:32:10.630Z,25.71
2017-08-25T14:34:37.364Z,25.59
2017-08-25T14:37:03.761Z,25.59
2017-08-25T14:39:30.705Z,25.54
2017-08-25T14:41:57.192Z,25.51
2017-08-25T14:44:23.631Z,25.45
2017-08-25T14:46:50.086Z,25.49
2017-08-25T14:49:16.612Z,25.49
2017-08-25T14:51:42.998Z,25.47
2017-08-25T14:54:09.643Z,25.49
2017-08-25T14:56:36.002Z,25.53
2017-08-25T14:59:02.388Z,25.56
2017-08-25T15:01:28.754Z,25.51
2017-08-25T15:03:55.169Z,25.41
2017-08-25T15:06:21.538Z,25.40
2017-08-25T15:08:47.937Z,25.43
2017-08-25T15:11:14.302Z,25.42
2017-08-25T15:13:40.659Z,25.30
2017-08-25T15:16:07.037Z,25.27
2017-08-25T15:18:33.397Z,25.48
2017-08-25T15:20:59.781Z,25.38
2017-08-25T15:23:26.209Z,25.44
2017-08-25T15:25:52.578Z,25.29
2017-08-25T15:28:18.955Z,25.37
2017-08-25T15:30:45.321Z,25.40
2017-08-25T15:33:11.700Z,25.29
2017-08-25T15:35:38.120Z,25.22
2017-08-25T15:38:04.478Z,25.24
2017-08-25T15:40:30.821Z,25.23
2017-08-25T15:42:57.158Z,25.23
2017-08-25T15:45:23.503Z,25.17
2017-08-25T15:47:49.881Z,25.13
2017-08-25T15:50:16.252Z,25.18
2017-08-25T15:52:42.629Z,25.08
2017-08-25T15:55:08.997Z,25.13
2017-08-25T15:57:35.343Z,25.09
2017-08-25T16:00:01.775Z,25.13
2017-08-25T16:02:28.141Z,25.04
2017-08-25T16:04:54.506Z,25.09
2017-08-25T16:07:20.959Z,25.19
2017-08-25T16:09:47.351Z,24.99
2017-08-25T16:12:13.798Z,24.96
2017-08-25T16:14:40.170Z,25.02
2017-08-25T16:17:06.549Z,24.99
2017-08-25T16:19:32.891Z,24.85
2017-08-25T16:21:59.261Z,24.80
2017-08-25T16:24:25.681Z,24.79
2017-08-25T16:26:52.042Z,24.92
2017-08-25T16:29:18.439Z,24.84
2017-08-25T16:31:44.845Z,24.77
2017-08-25T16:34:11.216Z,24.73
2017-08-25T16:36:37.592Z,24.70
2017-08-25T16:39:04.043Z,24.66
2017-08-25T16:41:30.385Z,24.57
2017-08-25T16:43:56.760Z,24.37
2017-08-25T16:46:23.159Z,24.48
2017-08-25T16:48:49.540Z,24.54
2017-08-25T16:51:15.925Z,24.49
2017-08-25T16:53:42.356Z,24.40
2017-08-25T16:56:08.712Z,24.39
2017-08-25T16:58:35.091Z,24.36
2017-08-25T17:01:02.224Z,24.33
2017-08-25T17:03:28.624Z,24.26
2017-08-25T17:05:55.033Z,24.23
2017-08-25T17:08:21.430Z,24.22
2017-08-25T17:10:53.581Z,24.21
2017-08-25T17:29:35.339Z,24.12
2017-08-25T17:32:01.724Z,24.04
2017-08-25T17:34:28.265Z,24.06
2017-08-25T17:36:54.657Z,23.96
2017-08-25T17:39:21.090Z,23.92
2017-08-25T17:41:47.502Z,23.86
2017-08-25T17:44:13.869Z,23.83
2017-08-25T17:46:40.242Z,23.77
2017-08-25T17:49:06.644Z,23.73
2017-08-25T17:51:33.034Z,23.73
2017-08-25T17:53:59.477Z,23.70
2017-08-25T17:56:25.807Z,23.62
2017-08-25T17:58:52.197Z,23.64
2017-08-25T18:01:18.581Z,23.58
2017-08-25T18:03:44.980Z,23.58
2017-08-25T18:06:11.350Z,23.61
2017-08-25T18:08:37.762Z,23.63
2017-08-25T18:11:04.159Z,23.55
2017-08-25T18:13:30.547Z,23.55
2017-08-25T18:15:56.938Z,23.55
2017-08-25T18:18:23.335Z,23.45
2017-08-25T18:20:49.697Z,23.43
2017-08-25T18:23:16.097Z,23.51
2017-08-25T18:25:42.469Z,23.41
2017-08-25T18:28:08.861Z,23.44
2017-08-25T18:30:35.242Z,23.46
2017-08-25T18:33:01.612Z,23.46
2017-08-25T18:35:27.993Z,23.39
2017-08-25T18:37:54.370Z,23.40
2017-08-25T18:40:20.741Z,23.32
2017-08-25T18:42:47.148Z,23.29
2017-08-25T18:45:13.525Z,23.26
2017-08-25T18:47:39.919Z,23.14
2017-08-25T18:50:06.300Z,23.19
2017-08-25T18:52:32.692Z,23.20
2017-08-25T18:54:59.108Z,23.20
2017-08-25T18:57:25.478Z,23.19
2017-08-25T18:59:51.861Z,23.19
2017-08-25T19:02:18.275Z,23.25
2017-08-25T19:04:44.669Z,23.19
2017-08-25T19:07:11.063Z,23.14
2017-08-25T19:09:37.442Z,23.18
2017-08-25T19:12:03.843Z,23.20
2017-08-25T19:14:30.227Z,23.04
2017-08-25T19:16:56.589Z,23.09
2017-08-25T19:19:22.973Z,23.10
2017-08-25T19:21:49.359Z,23.10
2017-08-25T19:24:15.749Z,22.99
2017-08-25T19:26:42.129Z,22.97
2017-08-25T19:29:08.545Z,22.98
2017-08-25T19:31:34.973Z,22.98
2017-08-25T19:34:01.357Z,23.00
2017-08-25T19:36:27.905Z,22.99
2017-08-25T19:38:54.334Z,22.94
2017-08-25T19:41:20.756Z,22.85
2017-08-25T19:43:47.205Z,22.87
2017-08-25T19:46:14.926Z,22.84
2017-08-25T19:48:41.324Z,22.87
2017-08-25T19:51:07.742Z,22.80
2017-08-25T19:53:34.122Z,22.78
2017-08-25T19:56:00.811Z,22.83
2017-08-25T19:58:27.279Z,22.78
2017-08-25T20:00:53.683Z,22.74
2017-08-25T20:03:20.072Z,22.68
2017-08-25T20:05:46.488Z,22.71
2017-08-25T20:08:12.887Z,22.65
2017-08-25T20:10:39.424Z,22.63
2017-08-25T20:13:05.825Z,22.59
2017-08-25T20:15:32.333Z,22.64
2017-08-25T20:17:58.686Z,22.62
2017-08-25T20:20:25.062Z,22.54
2017-08-25T20:22:51.459Z,22.57
2017-08-25T20:25:17.918Z,22.49
2017-08-25T20:27:44.356Z,22.56
2017-08-25T20:30:10.780Z,22.58
2017-08-25T20:32:37.980Z,22.58
2017-08-25T20:35:04.364Z,22.59
2017-08-25T20:37:31.247Z,22.66
2017-08-25T20:39:57.645Z,22.71
2017-08-25T20:42:24.044Z,22.72
2017-08-25T20:44:50.468Z,22.49
2017-08-25T20:47:16.878Z,22.47
2017-08-25T20:49:43.249Z,22.52
2017-08-25T20:52:09.658Z,22.56
2017-08-25T20:54:36.047Z,22.51
2017-08-25T20:57:02.441Z,22.47
2017-08-25T20:59:28.844Z,22.42
2017-08-25T21:01:56.724Z,22.41
2017-08-25T21:04:23.313Z,22.16
2017-08-25T21:06:50.330Z,22.02
2017-08-25T21:09:16.772Z,22.15
2017-08-25T21:11:43.127Z,22.05
2017-08-25T21:14:09.518Z,21.86
2017-08-25T21:16:35.929Z,21.90
2017-08-25T21:19:02.352Z,21.77
2017-08-25T21:21:28.756Z,21.73
2017-08-25T21:23:55.179Z,21.69
2017-08-25T21:26:21.539Z,21.71
2017-08-25T21:28:47.945Z,21.61
2017-08-25T21:31:14.335Z,21.75
2017-08-25T21:33:40.724Z,21.60
2017-08-25T21:36:07.126Z,21.47
2017-08-25T21:38:33.499Z,21.55
2017-08-25T21:40:59.902Z,21.60
2017-08-25T21:43:26.308Z,21.67
2017-08-25T21:45:52.730Z,21.62
2017-08-25T21:48:19.611Z,21.61
2017-08-25T21:50:46.019Z,21.56
2017-08-25T21:53:12.488Z,21.32
2017-08-25T21:55:38.888Z,21.33
2017-08-25T21:58:05.303Z,21.40
2017-08-25T22:00:31.724Z,21.51
2017-08-25T22:02:58.140Z,21.34
2017-08-25T22:05:24.568Z,21.32
2017-08-25T22:07:51.003Z,21.31
2017-08-25T22:10:17.431Z,21.42
2017-08-25T22:12:43.834Z,21.45
2017-08-25T22:15:10.239Z,21.45
2017-08-25T22:17:36.647Z,21.35
2017-08-25T22:20:03.121Z,21.28
2017-08-25T22:22:29.531Z,21.25
2017-08-25T22:24:55.935Z,21.24
2017-08-25T22:27:22.454Z,21.16
2017-08-25T22:29:48.885Z,21.19
2017-08-25T22:32:15.320Z,21.14
2017-08-25T22:34:41.689Z,21.19
2017-08-25T22:37:08.080Z,21.36
2017-08-25T22:39:34.490Z,21.55
2017-08-25T22:42:00.875Z,21.61
2017-08-25T22:44:28.715Z,21.67
2017-08-25T22:46:55.130Z,21.70
2017-08-25T22:49:21.536Z,21.62
2017-08-25T22:51:47.938Z,21.70
2017-08-25T22:54:14.343Z,21.69
2017-08-25T22:56:40.743Z,21.68
2017-08-25T22:59:07.213Z,21.69
2017-08-25T23:01:33.607Z,21.59
2017-08-25T23:04:00.100Z,21.64
2017-08-25T23:06:26.478Z,21.42
2017-08-25T23:08:52.964Z,21.27
2017-08-25T23:11:19.349Z,21.14
2017-08-25T23:13:49.263Z,21.12
2017-08-25T23:16:16.495Z,21.26
2017-08-25T23:18:42.919Z,21.42
2017-08-25T23:21:09.309Z,21.39
2017-08-25T23:23:35.742Z,21.19
2017-08-25T23:26:02.136Z,21.22
2017-08-25T23:28:28.552Z,21.23
2017-08-25T23:30:54.957Z,21.40
2017-08-25T23:33:21.365Z,21.54
2017-08-25T23:35:47.875Z,21.47
2017-08-25T23:38:14.226Z,21.31
2017-08-25T23:40:40.663Z,21.25
2017-08-25T23:43:07.069Z,21.17
2017-08-25T23:45:33.426Z,21.12
2017-08-25T23:47:59.848Z,21.02
2017-08-25T23:50:26.229Z,20.98
2017-08-25T23:52:52.598Z,21.16
2017-08-25T23:55:18.985Z,21.16
2017-08-25T23:57:48.449Z,21.17
